Terminal Aerodrome Forecast
Issued by NWS Buffalo, NY

Home | Current Version | Previous Version | Text Only | Print | Product List | Glossary On
Versions: 1 2 3 4 5 6 7 8 9 10 11 12 13 14 15 16 17 18 19 20 21 22 23 24
469
FTUS41 KBUF 110531
TAFROC
TAF
KROC 110531Z 1106/1206 25010KT P6SM VCSH OVC040
      TEMPO 1106/1108 2SM -SHSN BKN025
     FM110900 30007KT P6SM VCSH OVC035
     FM111400 31006KT P6SM BKN050
     FM111800 VRB03KT P6SM BKN050
     FM112300 11006KT P6SM VCSH OVC035
     FM120100 12009KT 2SM -SN OVC015=

USA.gov is the U.S. government's official web portal to all federal, state and local government web resources and services.